sensor_id;sensor_type;location;lat;lon;timestamp;pressure;altitude;pressure_sealevel;temperature
61703;BMP280;47622;47.726;3.298;2023-12-29T00:00:06;99323.25;;;9.26
61703;BMP280;47622;47.726;3.298;2023-12-29T00:02:33;99319.03;;;9.30
61703;BMP280;47622;47.726;3.298;2023-12-29T00:04:59;99321.63;;;9.30
61703;BMP280;47622;47.726;3.298;2023-12-29T00:07:24;99314.06;;;9.28
61703;BMP280;47622;47.726;3.298;2023-12-29T00:09:50;99311.19;;;9.30
61703;BMP280;47622;47.726;3.298;2023-12-29T00:12:15;99320.00;;;9.34
61703;BMP280;47622;47.726;3.298;2023-12-29T00:14:41;99310.03;;;9.36
61703;BMP280;47622;47.726;3.298;2023-12-29T00:17:07;99309.53;;;9.34
61703;BMP280;47622;47.726;3.298;2023-12-29T00:19:33;99310.69;;;9.28
61703;BMP280;47622;47.726;3.298;2023-12-29T00:21:58;99310.13;;;9.31
61703;BMP280;47622;47.726;3.298;2023-12-29T00:24:26;99299.56;;;9.36
61703;BMP280;47622;47.726;3.298;2023-12-29T00:26:51;99310.63;;;9.33
61703;BMP280;47622;47.726;3.298;2023-12-29T00:29:17;99309.09;;;9.32
61703;BMP280;47622;47.726;3.298;2023-12-29T00:31:43;99305.69;;;9.31
61703;BMP280;47622;47.726;3.298;2023-12-29T00:34:08;99301.78;;;9.29
61703;BMP280;47622;47.726;3.298;2023-12-29T00:36:34;99302.31;;;9.26
61703;BMP280;47622;47.726;3.298;2023-12-29T00:38:59;99298.72;;;9.40
61703;BMP280;47622;47.726;3.298;2023-12-29T00:41:25;99302.94;;;9.36
61703;BMP280;47622;47.726;3.298;2023-12-29T00:43:50;99304.78;;;9.36
61703;BMP280;47622;47.726;3.298;2023-12-29T00:46:16;99303.84;;;9.32
61703;BMP280;47622;47.726;3.298;2023-12-29T00:48:41;99300.63;;;9.35
61703;BMP280;47622;47.726;3.298;2023-12-29T00:51:07;99299.06;;;9.34
61703;BMP280;47622;47.726;3.298;2023-12-29T00:53:35;99292.88;;;9.30
61703;BMP280;47622;47.726;3.298;2023-12-29T00:56:00;99287.09;;;9.33
61703;BMP280;47622;47.726;3.298;2023-12-29T00:58:26;99288.22;;;9.27
61703;BMP280;47622;47.726;3.298;2023-12-29T01:00:51;99293.28;;;9.37
61703;BMP280;47622;47.726;3.298;2023-12-29T01:03:17;99294.94;;;9.33
61703;BMP280;47622;47.726;3.298;2023-12-29T01:05:43;99301.22;;;9.32
61703;BMP280;47622;47.726;3.298;2023-12-29T01:08:08;99294.63;;;9.34
61703;BMP280;47622;47.726;3.298;2023-12-29T01:10:34;99291.38;;;9.42
61703;BMP280;47622;47.726;3.298;2023-12-29T01:12:59;99292.13;;;9.43
61703;BMP280;47622;47.726;3.298;2023-12-29T01:15:25;99294.84;;;9.38
61703;BMP280;47622;47.726;3.298;2023-12-29T01:17:50;99284.94;;;9.35
61703;BMP280;47622;47.726;3.298;2023-12-29T01:20:16;99285.53;;;9.32
61703;BMP280;47622;47.726;3.298;2023-12-29T01:22:41;99283.84;;;9.36
61703;BMP280;47622;47.726;3.298;2023-12-29T01:25:07;99278.91;;;9.34
61703;BMP280;47622;47.726;3.298;2023-12-29T01:27:33;99283.84;;;9.36
61703;BMP280;47622;47.726;3.298;2023-12-29T01:29:58;99283.59;;;9.37
61703;BMP280;47622;47.726;3.298;2023-12-29T01:32:25;99293.38;;;9.32
61703;BMP280;47622;47.726;3.298;2023-12-29T01:34:52;99291.53;;;9.32
61703;BMP280;47622;47.726;3.298;2023-12-29T01:37:18;99279.78;;;9.30
61703;BMP280;47622;47.726;3.298;2023-12-29T01:39:43;99283.47;;;9.29
61703;BMP280;47622;47.726;3.298;2023-12-29T01:42:09;99284.38;;;9.38
61703;BMP280;47622;47.726;3.298;2023-12-29T01:44:36;99276.44;;;9.43
61703;BMP280;47622;47.726;3.298;2023-12-29T01:47:03;99276.25;;;9.39
61703;BMP280;47622;47.726;3.298;2023-12-29T01:49:33;99271.78;;;9.40
61703;BMP280;47622;47.726;3.298;2023-12-29T01:52:00;99270.78;;;9.36
61703;BMP280;47622;47.726;3.298;2023-12-29T01:54:34;99278.13;;;9.34
61703;BMP280;47622;47.726;3.298;2023-12-29T01:57:00;99265.53;;;9.36
61703;BMP280;47622;47.726;3.298;2023-12-29T01:59:28;99262.38;;;9.39
61703;BMP280;47622;47.726;3.298;2023-12-29T02:01:54;99262.88;;;9.41
61703;BMP280;47622;47.726;3.298;2023-12-29T02:04:26;99250.25;;;9.43
61703;BMP280;47622;47.726;3.298;2023-12-29T02:06:52;99251.03;;;9.43
61703;BMP280;47622;47.726;3.298;2023-12-29T02:09:18;99259.22;;;9.42
61703;BMP280;47622;47.726;3.298;2023-12-29T02:11:45;99250.84;;;9.40
61703;BMP280;47622;47.726;3.298;2023-12-29T02:14:11;99259.28;;;9.37
61703;BMP280;47622;47.726;3.298;2023-12-29T02:16:44;99262.78;;;9.46
61703;BMP280;47622;47.726;3.298;2023-12-29T02:22:01;99273.91;;;9.38
61703;BMP280;47622;47.726;3.298;2023-12-29T02:24:27;99278.13;;;9.34
61703;BMP280;47622;47.726;3.298;2023-12-29T02:27:20;99279.06;;;9.43
61703;BMP280;47622;47.726;3.298;2023-12-29T02:29:52;99280.22;;;9.37
61703;BMP280;47622;47.726;3.298;2023-12-29T02:32:21;99275.47;;;9.39
61703;BMP280;47622;47.726;3.298;2023-12-29T02:34:50;99273.91;;;9.38
61703;BMP280;47622;47.726;3.298;2023-12-29T02:37:17;99278.56;;;9.41
61703;BMP280;47622;47.726;3.298;2023-12-29T02:39:44;99271.78;;;9.40
61703;BMP280;47622;47.726;3.298;2023-12-29T02:42:10;99265.97;;;9.43
61703;BMP280;47622;47.726;3.298;2023-12-29T02:44:35;99271.38;;;9.33
61703;BMP280;47622;47.726;3.298;2023-12-29T02:47:01;99270.78;;;9.36
61703;BMP280;47622;47.726;3.298;2023-12-29T02:49:29;99269.84;;;9.32
61703;BMP280;47622;47.726;3.298;2023-12-29T02:51:55;99268.44;;;9.34
61703;BMP280;47622;47.726;3.298;2023-12-29T02:54:20;99258.38;;;9.28
61703;BMP280;47622;47.726;3.298;2023-12-29T02:56:46;99272.06;;;9.20
61703;BMP280;47622;47.726;3.298;2023-12-29T02:59:11;99254.44;;;9.11
61703;BMP280;47622;47.726;3.298;2023-12-29T03:01:37;99254.28;;;9.22
61703;BMP280;47622;47.726;3.298;2023-12-29T03:04:02;99245.53;;;9.12
61703;BMP280;47622;47.726;3.298;2023-12-29T03:06:28;99251.16;;;9.20
61703;BMP280;47622;47.726;3.298;2023-12-29T03:08:53;99246.44;;;9.22
61703;BMP280;47622;47.726;3.298;2023-12-29T03:11:19;99253.28;;;9.17
61703;BMP280;47622;47.726;3.298;2023-12-29T03:13:45;99244.13;;;9.15
61703;BMP280;47622;47.726;3.298;2023-12-29T03:16:10;99246.50;;;9.16
61703;BMP280;47622;47.726;3.298;2023-12-29T03:18:37;99237.97;;;9.11
61703;BMP280;47622;47.726;3.298;2023-12-29T03:21:05;99233.41;;;9.16
61703;BMP280;47622;47.726;3.298;2023-12-29T03:23:31;99226.72;;;9.10
61703;BMP280;47622;47.726;3.298;2023-12-29T03:25:56;99230.38;;;9.09
61703;BMP280;47622;47.726;3.298;2023-12-29T03:28:22;99234.78;;;8.95
61703;BMP280;47622;47.726;3.298;2023-12-29T03:30:47;99234.28;;;8.93
61703;BMP280;47622;47.726;3.298;2023-12-29T03:33:15;99231.09;;;8.96
61703;BMP280;47622;47.726;3.298;2023-12-29T03:35:40;99229.97;;;9.02
61703;BMP280;47622;47.726;3.298;2023-12-29T03:38:06;99236.75;;;9.03
61703;BMP280;47622;47.726;3.298;2023-12-29T03:40:31;99233.16;;;8.99
61703;BMP280;47622;47.726;3.298;2023-12-29T03:42:57;99234.63;;;9.05
61703;BMP280;47622;47.726;3.298;2023-12-29T03:45:22;99244.34;;;9.05
61703;BMP280;47622;47.726;3.298;2023-12-29T03:47:48;99234.63;;;9.05
61703;BMP280;47622;47.726;3.298;2023-12-29T03:50:13;99240.28;;;9.12
61703;BMP280;47622;47.726;3.298;2023-12-29T03:52:39;99233.50;;;9.11
61703;BMP280;47622;47.726;3.298;2023-12-29T03:55:05;99238.06;;;9.20
61703;BMP280;47622;47.726;3.298;2023-12-29T03:57:31;99239.13;;;9.18
61703;BMP280;47622;47.726;3.298;2023-12-29T03:59:56;99235.47;;;9.20
61703;BMP280;47622;47.726;3.298;2023-12-29T04:02:22;99239.03;;;9.24
61703;BMP280;47622;47.726;3.298;2023-12-29T04:04:48;99232.56;;;9.21
61703;BMP280;47622;47.726;3.298;2023-12-29T04:07:13;99226.56;;;9.21
61703;BMP280;47622;47.726;3.298;2023-12-29T04:09:39;99228.13;;;9.22
61703;BMP280;47622;47.726;3.298;2023-12-29T04:12:06;99227.13;;;9.17
61703;BMP280;47622;47.726;3.298;2023-12-29T04:14:31;99232.34;;;9.17
61703;BMP280;47622;47.726;3.298;2023-12-29T04:16:57;99225.41;;;9.27
61703;BMP280;47622;47.726;3.298;2023-12-29T04:19:22;99230.66;;;9.27
61703;BMP280;47622;47.726;3.298;2023-12-29T04:21:48;99226.69;;;9.29
61703;BMP280;47622;47.726;3.298;2023-12-29T04:24:13;99227.97;;;9.32
61703;BMP280;47622;47.726;3.298;2023-12-29T04:26:39;99227.44;;;9.30
61703;BMP280;47622;47.726;3.298;2023-12-29T04:29:05;99239.75;;;9.29
61703;BMP280;47622;47.726;3.298;2023-12-29T04:31:30;99229.00;;;9.31
61703;BMP280;47622;47.726;3.298;2023-12-29T04:33:56;99229.50;;;9.33
61703;BMP280;47622;47.726;3.298;2023-12-29T04:36:21;99222.50;;;9.28
61703;BMP280;47622;47.726;3.298;2023-12-29T04:38:47;99225.41;;;9.27
61703;BMP280;47622;47.726;3.298;2023-12-29T04:41:12;99225.22;;;9.23
61703;BMP280;47622;47.726;3.298;2023-12-29T04:43:38;99220.72;;;9.24
61703;BMP280;47622;47.726;3.298;2023-12-29T04:46:04;99220.13;;;9.32
61703;BMP280;47622;47.726;3.298;2023-12-29T04:48:29;99225.03;;;9.33
61703;BMP280;47622;47.726;3.298;2023-12-29T04:50:55;99228.91;;;9.36
61703;BMP280;47622;47.726;3.298;2023-12-29T04:53:20;99225.34;;;9.32
61703;BMP280;47622;47.726;3.298;2023-12-29T04:55:46;99219.59;;;9.30
61703;BMP280;47622;47.726;3.298;2023-12-29T04:58:11;99220.50;;;9.39
61703;BMP280;47622;47.726;3.298;2023-12-29T05:00:37;99220.28;;;9.35
61703;BMP280;47622;47.726;3.298;2023-12-29T05:03:03;99213.81;;;9.33
61703;BMP280;47622;47.726;3.298;2023-12-29T05:05:28;99222.63;;;9.37
61703;BMP280;47622;47.726;3.298;2023-12-29T05:07:54;99220.03;;;9.37
61703;BMP280;47622;47.726;3.298;2023-12-29T05:10:19;99220.13;;;9.32
61703;BMP280;47622;47.726;3.298;2023-12-29T05:12:45;99221.97;;;9.31
61703;BMP280;47622;47.726;3.298;2023-12-29T05:15:10;99209.72;;;9.27
61703;BMP280;47622;47.726;3.298;2023-12-29T05:17:36;99208.13;;;9.26
61703;BMP280;47622;47.726;3.298;2023-12-29T05:20:02;99213.97;;;9.23
61703;BMP280;47622;47.726;3.298;2023-12-29T05:22:28;99221.88;;;9.17
61703;BMP280;47622;47.726;3.298;2023-12-29T05:24:54;99218.59;;;9.26
61703;BMP280;47622;47.726;3.298;2023-12-29T05:27:23;99212.44;;;9.22
61703;BMP280;47622;47.726;3.298;2023-12-29T05:29:48;99217.03;;;9.25
61703;BMP280;47622;47.726;3.298;2023-12-29T05:32:13;99211.25;;;9.28
61703;BMP280;47622;47.726;3.298;2023-12-29T05:34:39;99212.25;;;9.32
61703;BMP280;47622;47.726;3.298;2023-12-29T05:37:04;99213.38;;;9.26
61703;BMP280;47622;47.726;3.298;2023-12-29T05:39:30;99205.88;;;9.38
61703;BMP280;47622;47.726;3.298;2023-12-29T05:41:55;99214.38;;;9.30
61703;BMP280;47622;47.726;3.298;2023-12-29T05:44:21;99211.81;;;9.25
61703;BMP280;47622;47.726;3.298;2023-12-29T05:46:47;99206.41;;;9.21
61703;BMP280;47622;47.726;3.298;2023-12-29T05:49:13;99211.50;;;9.31
61703;BMP280;47622;47.726;3.298;2023-12-29T05:51:38;99214.19;;;9.26
61703;BMP280;47622;47.726;3.298;2023-12-29T05:54:04;99210.88;;;9.21
61703;BMP280;47622;47.726;3.298;2023-12-29T05:56:29;99221.16;;;9.31
61703;BMP280;47622;47.726;3.298;2023-12-29T05:58:55;99216.66;;;9.17
61703;BMP280;47622;47.726;3.298;2023-12-29T06:01:20;99213.97;;;9.23
61703;BMP280;47622;47.726;3.298;2023-12-29T06:03:46;99212.69;;;9.20
61703;BMP280;47622;47.726;3.298;2023-12-29T06:06:11;99213.97;;;9.23
61703;BMP280;47622;47.726;3.298;2023-12-29T06:08:37;99221.81;;;9.23
61703;BMP280;47622;47.726;3.298;2023-12-29T06:11:03;99221.13;;;9.17
61703;BMP280;47622;47.726;3.298;2023-12-29T06:13:28;99226.72;;;9.10
61703;BMP280;47622;47.726;3.298;2023-12-29T06:15:54;99222.69;;;8.99
61703;BMP280;47622;47.726;3.298;2023-12-29T06:18:20;99222.78;;;8.94
61703;BMP280;47622;47.726;3.298;2023-12-29T06:20:45;99230.94;;;8.87
61703;BMP280;47622;47.726;3.298;2023-12-29T06:23:11;99224.00;;;8.78
61703;BMP280;47622;47.726;3.298;2023-12-29T06:25:36;99227.41;;;8.59
61703;BMP280;47622;47.726;3.298;2023-12-29T06:28:05;99240.06;;;8.52
61703;BMP280;47622;47.726;3.298;2023-12-29T06:30:31;99243.78;;;8.46
61703;BMP280;47622;47.726;3.298;2023-12-29T06:32:57;99238.56;;;8.46
61703;BMP280;47622;47.726;3.298;2023-12-29T06:35:23;99246.72;;;8.40
61703;BMP280;47622;47.726;3.298;2023-12-29T06:37:48;99234.44;;;8.40
61703;BMP280;47622;47.726;3.298;2023-12-29T06:40:16;99238.22;;;8.29
61703;BMP280;47622;47.726;3.298;2023-12-29T06:42:42;99238.75;;;8.31
61703;BMP280;47622;47.726;3.298;2023-12-29T06:45:07;99245.16;;;8.20
61703;BMP280;47622;47.726;3.298;2023-12-29T06:47:33;99239.13;;;8.19
61703;BMP280;47622;47.726;3.298;2023-12-29T06:49:59;99243.03;;;8.22
61703;BMP280;47622;47.726;3.298;2023-12-29T06:52:24;99237.72;;;8.27
61703;BMP280;47622;47.726;3.298;2023-12-29T06:54:51;99236.19;;;8.26
61703;BMP280;47622;47.726;3.298;2023-12-29T06:57:17;99236.25;;;8.21
61703;BMP280;47622;47.726;3.298;2023-12-29T06:59:42;99234.91;;;8.23
61703;BMP280;47622;47.726;3.298;2023-12-29T07:02:07;99239.34;;;8.23
61703;BMP280;47622;47.726;3.298;2023-12-29T07:04:33;99238.44;;;8.09
61703;BMP280;47622;47.726;3.298;2023-12-29T07:07:00;99240.91;;;8.00
61703;BMP280;47622;47.726;3.298;2023-12-29T07:09:26;99234.34;;;8.03
61703;BMP280;47622;47.726;3.298;2023-12-29T07:11:52;99236.22;;;7.97
61703;BMP280;47622;47.726;3.298;2023-12-29T07:14:17;99232.44;;;7.84
61703;BMP280;47622;47.726;3.298;2023-12-29T07:16:43;99226.78;;;7.77
61703;BMP280;47622;47.726;3.298;2023-12-29T07:19:09;99217.41;;;7.71
61703;BMP280;47622;47.726;3.298;2023-12-29T07:21:35;99227.84;;;7.71
61703;BMP280;47622;47.726;3.298;2023-12-29T07:24:00;99233.06;;;7.71
61703;BMP280;47622;47.726;3.298;2023-12-29T07:26:26;99232.91;;;7.62
61703;BMP280;47622;47.726;3.298;2023-12-29T07:28:51;99236.88;;;7.55
61703;BMP280;47622;47.726;3.298;2023-12-29T07:31:22;99252.00;;;7.58
61703;BMP280;47622;47.726;3.298;2023-12-29T07:33:49;99255.13;;;7.55
61703;BMP280;47622;47.726;3.298;2023-12-29T07:36:15;99250.13;;;7.58
61703;BMP280;47622;47.726;3.298;2023-12-29T07:38:40;99253.13;;;7.47
61703;BMP280;47622;47.726;3.298;2023-12-29T07:41:06;99244.78;;;7.45
61703;BMP280;47622;47.726;3.298;2023-12-29T07:43:31;99259.09;;;7.47
61703;BMP280;47622;47.726;3.298;2023-12-29T07:45:57;99256.50;;;7.47
61703;BMP280;47622;47.726;3.298;2023-12-29T07:48:22;99252.34;;;7.46
61703;BMP280;47622;47.726;3.298;2023-12-29T07:50:48;99269.22;;;7.54
61703;BMP280;47622;47.726;3.298;2023-12-29T07:53:13;99263.69;;;7.60
61703;BMP280;47622;47.726;3.298;2023-12-29T07:55:39;99269.41;;;7.67
61703;BMP280;47622;47.726;3.298;2023-12-29T07:58:05;99262.28;;;7.73
61703;BMP280;47622;47.726;3.298;2023-12-29T08:00:31;99270.97;;;7.92
61703;BMP280;47622;47.726;3.298;2023-12-29T08:02:56;99270.94;;;7.97
61703;BMP280;47622;47.726;3.298;2023-12-29T08:05:24;99279.69;;;8.12
61703;BMP280;47622;47.726;3.298;2023-12-29T08:07:50;99273.88;;;8.20
61703;BMP280;47622;47.726;3.298;2023-12-29T08:10:15;99278.53;;;8.23
61703;BMP280;47622;47.726;3.298;2023-12-29T08:12:41;99273.25;;;8.28
61703;BMP280;47622;47.726;3.298;2023-12-29T08:15:07;99279.91;;;8.39
61703;BMP280;47622;47.726;3.298;2023-12-29T08:17:33;99272.59;;;8.41
61703;BMP280;47622;47.726;3.298;2023-12-29T08:19:58;99273.56;;;8.45
61703;BMP280;47622;47.726;3.298;2023-12-29T08:22:24;99279.88;;;8.44
61703;BMP280;47622;47.726;3.298;2023-12-29T08:24:49;99283.72;;;8.52
61703;BMP280;47622;47.726;3.298;2023-12-29T08:27:22;99288.59;;;8.58
61703;BMP280;47622;47.726;3.298;2023-12-29T08:29:49;99287.47;;;8.65
61703;BMP280;47622;47.726;3.298;2023-12-29T08:32:14;99284.00;;;8.69
61703;BMP280;47622;47.726;3.298;2023-12-29T08:34:40;99283.53;;;8.86
61703;BMP280;47622;47.726;3.298;2023-12-29T08:37:05;99282.75;;;8.85
61703;BMP280;47622;47.726;3.298;2023-12-29T08:39:31;99281.47;;;8.83
61703;BMP280;47622;47.726;3.298;2023-12-29T08:41:56;99276.13;;;8.93
61703;BMP280;47622;47.726;3.298;2023-12-29T08:44:22;99277.63;;;8.99
61703;BMP280;47622;47.726;3.298;2023-12-29T08:46:47;99276.97;;;9.07
61703;BMP280;47622;47.726;3.298;2023-12-29T08:49:13;99284.75;;;9.12
61703;BMP280;47622;47.726;3.298;2023-12-29T08:51:39;99281.56;;;9.15
61703;BMP280;47622;47.726;3.298;2023-12-29T08:54:04;99280.63;;;9.25
61703;BMP280;47622;47.726;3.298;2023-12-29T08:56:30;99264.44;;;9.42
61703;BMP280;47622;47.726;3.298;2023-12-29T08:58:55;99277.50;;;9.74
61703;BMP280;47622;47.726;3.298;2023-12-29T09:01:21;99270.34;;;9.94
61703;BMP280;47622;47.726;3.298;2023-12-29T09:03:46;99282.69;;;10.07
61703;BMP280;47622;47.726;3.298;2023-12-29T09:06:12;99277.44;;;10.07
61703;BMP280;47622;47.726;3.298;2023-12-29T09:08:37;99279.69;;;10.27
61703;BMP280;47622;47.726;3.298;2023-12-29T09:11:04;99281.09;;;10.47
61703;BMP280;47622;47.726;3.298;2023-12-29T09:13:29;99290.16;;;10.55
61703;BMP280;47622;47.726;3.298;2023-12-29T09:15:55;99291.84;;;10.73
61703;BMP280;47622;47.726;3.298;2023-12-29T09:18:21;99288.09;;;10.52
61703;BMP280;47622;47.726;3.298;2023-12-29T09:20:46;99292.69;;;10.32
61703;BMP280;47622;47.726;3.298;2023-12-29T09:23:13;99295.91;;;10.29
61703;BMP280;47622;47.726;3.298;2023-12-29T09:25:38;99295.78;;;10.34
61703;BMP280;47622;47.726;3.298;2023-12-29T09:28:04;99305.91;;;10.27
61703;BMP280;47622;47.726;3.298;2023-12-29T09:30:29;99295.41;;;10.27
61703;BMP280;47622;47.726;3.298;2023-12-29T09:32:55;99303.16;;;10.32
61703;BMP280;47622;47.726;3.298;2023-12-29T09:35:20;99302.00;;;10.25
61703;BMP280;47622;47.726;3.298;2023-12-29T09:37:47;99296.97;;;10.28
61703;BMP280;47622;47.726;3.298;2023-12-29T09:40:14;99294.03;;;10.44
61703;BMP280;47622;47.726;3.298;2023-12-29T09:42:43;99302.19;;;10.70
61703;BMP280;47622;47.726;3.298;2023-12-29T09:45:11;99303.41;;;10.72
61703;BMP280;47622;47.726;3.298;2023-12-29T09:47:39;99309.03;;;10.79
61703;BMP280;47622;47.726;3.298;2023-12-29T09:50:07;99310.44;;;10.99
61703;BMP280;47622;47.726;3.298;2023-12-29T09:52:37;99308.97;;;11.07
61703;BMP280;47622;47.726;3.298;2023-12-29T09:55:05;99301.66;;;11.04
61703;BMP280;47622;47.726;3.298;2023-12-29T09:57:35;99309.88;;;10.88
61703;BMP280;47622;47.726;3.298;2023-12-29T10:00:01;99324.84;;;11.02
61703;BMP280;47622;47.726;3.298;2023-12-29T10:02:27;99324.22;;;11.05
61703;BMP280;47622;47.726;3.298;2023-12-29T10:04:55;99313.59;;;10.87
61703;BMP280;47622;47.726;3.298;2023-12-29T10:07:25;99313.97;;;10.94
61703;BMP280;47622;47.726;3.298;2023-12-29T10:09:57;99317.41;;;11.04
61703;BMP280;47622;47.726;3.298;2023-12-29T10:12:24;99303.56;;;11.03
61703;BMP280;47622;47.726;3.298;2023-12-29T10:15:12;99306.69;;;11.58
61703;BMP280;47622;47.726;3.298;2023-12-29T10:23:00;99308.88;;;12.36
61703;BMP280;47622;47.726;3.298;2023-12-29T10:25:30;99310.03;;;12.78
61703;BMP280;47622;47.726;3.298;2023-12-29T10:27:56;99303.47;;;12.58
61703;BMP280;47622;47.726;3.298;2023-12-29T10:30:22;99304.06;;;12.29
61703;BMP280;47622;47.726;3.298;2023-12-29T10:32:52;99311.91;;;12.21
61703;BMP280;47622;47.726;3.298;2023-12-29T10:35:18;99296.88;;;12.04
61703;BMP280;47622;47.726;3.298;2023-12-29T10:37:43;99302.47;;;11.80
61703;BMP280;47622;47.726;3.298;2023-12-29T10:40:17;99301.25;;;11.77
61703;BMP280;47622;47.726;3.298;2023-12-29T10:42:53;99293.16;;;11.74
61703;BMP280;47622;47.726;3.298;2023-12-29T10:45:19;99295.22;;;11.77
61703;BMP280;47622;47.726;3.298;2023-12-29T10:47:44;99296.88;;;11.73
61703;BMP280;47622;47.726;3.298;2023-12-29T10:50:10;99291.88;;;11.63
61703;BMP280;47622;47.726;3.298;2023-12-29T10:52:36;99293.53;;;11.58
61703;BMP280;47622;47.726;3.298;2023-12-29T10:55:07;99288.44;;;11.53
61703;BMP280;47622;47.726;3.298;2023-12-29T10:57:34;99282.34;;;11.22
61703;BMP280;47622;47.726;3.298;2023-12-29T10:59:59;99277.31;;;11.25
61703;BMP280;47622;47.726;3.298;2023-12-29T11:02:29;99286.25;;;11.24
61703;BMP280;47622;47.726;3.298;2023-12-29T11:05:15;99284.34;;;11.16
61703;BMP280;47622;47.726;3.298;2023-12-29T11:07:41;99274.88;;;11.07
61703;BMP280;47622;47.726;3.298;2023-12-29T11:10:08;99290.31;;;11.08
61703;BMP280;47622;47.726;3.298;2023-12-29T11:12:37;99276.53;;;11.03
61703;BMP280;47622;47.726;3.298;2023-12-29T11:15:06;99283.78;;;11.06
61703;BMP280;47622;47.726;3.298;2023-12-29T11:17:34;99283.44;;;10.99
61703;BMP280;47622;47.726;3.298;2023-12-29T11:20:02;99290.78;;;11.10
61703;BMP280;47622;47.726;3.298;2023-12-29T11:22:31;99287.38;;;11.10
61703;BMP280;47622;47.726;3.298;2023-12-29T11:24:58;99281.66;;;11.08
61703;BMP280;47622;47.726;3.298;2023-12-29T11:27:28;99274.13;;;11.15
61703;BMP280;47622;47.726;3.298;2023-12-29T11:30:00;99271.72;;;11.18
61703;BMP280;47622;47.726;3.298;2023-12-29T11:35:18;99269.78;;;11.10
61703;BMP280;47622;47.726;3.298;2023-12-29T11:40:42;99265.41;;;10.83
61703;BMP280;47622;47.726;3.298;2023-12-29T11:43:15;99265.75;;;10.90
61703;BMP280;47622;47.726;3.298;2023-12-29T11:45:42;99267.13;;;11.02
61703;BMP280;47622;47.726;3.298;2023-12-29T11:48:07;99257.19;;;10.99
61703;BMP280;47622;47.726;3.298;2023-12-29T11:50:35;99246.97;;;11.19
61703;BMP280;47622;47.726;3.298;2023-12-29T11:53:02;99237.25;;;11.20
61703;BMP280;47622;47.726;3.298;2023-12-29T11:55:30;99243.13;;;11.17
61703;BMP280;47622;47.726;3.298;2023-12-29T11:57:57;99246.41;;;11.22
61703;BMP280;47622;47.726;3.298;2023-12-29T12:00:44;99235.75;;;11.19
61703;BMP280;47622;47.726;3.298;2023-12-29T12:03:24;99234.59;;;11.34
61703;BMP280;47622;47.726;3.298;2023-12-29T12:05:50;99232.75;;;11.34
61703;BMP280;47622;47.726;3.298;2023-12-29T12:08:35;99231.25;;;11.50
61703;BMP280;47622;47.726;3.298;2023-12-29T12:13:59;99239.59;;;11.21
61703;BMP280;47622;47.726;3.298;2023-12-29T12:16:47;99232.13;;;11.37
61703;BMP280;47622;47.726;3.298;2023-12-29T12:19:13;99223.84;;;11.21
61703;BMP280;47622;47.726;3.298;2023-12-29T12:21:40;99223.31;;;11.11
61703;BMP280;47622;47.726;3.298;2023-12-29T12:24:06;99224.88;;;11.12
61703;BMP280;47622;47.726;3.298;2023-12-29T12:26:33;99218.84;;;11.11
61703;BMP280;47622;47.726;3.298;2023-12-29T12:29:00;99220.22;;;11.09
61703;BMP280;47622;47.726;3.298;2023-12-29T12:31:26;99215.56;;;11.06
61703;BMP280;47622;47.726;3.298;2023-12-29T12:33:58;99218.25;;;11.14
61703;BMP280;47622;47.726;3.298;2023-12-29T12:36:26;99196.13;;;11.07
61703;BMP280;47622;47.726;3.298;2023-12-29T12:38:55;99209.78;;;10.95
61703;BMP280;47622;47.726;3.298;2023-12-29T12:41:22;99207.78;;;10.92
61703;BMP280;47622;47.726;3.298;2023-12-29T12:44:13;99207.34;;;10.99
61703;BMP280;47622;47.726;3.298;2023-12-29T12:46:51;99207.81;;;11.01
61703;BMP280;47622;47.726;3.298;2023-12-29T12:49:20;99215.81;;;10.95
61703;BMP280;47622;47.726;3.298;2023-12-29T12:51:46;99212.88;;;10.97
61703;BMP280;47622;47.726;3.298;2023-12-29T12:54:13;99216.06;;;10.85
61703;BMP280;47622;47.726;3.298;2023-12-29T12:56:43;99205.56;;;10.85
61703;BMP280;47622;47.726;3.298;2023-12-29T12:59:09;99206.34;;;10.86
61703;BMP280;47622;47.726;3.298;2023-12-29T13:01:36;99207.03;;;11.00
61703;BMP280;47622;47.726;3.298;2023-12-29T13:04:03;99200.78;;;11.10
61703;BMP280;47622;47.726;3.298;2023-12-29T13:06:31;99198.63;;;11.12
61703;BMP280;47622;47.726;3.298;2023-12-29T13:08:58;99186.44;;;11.16
61703;BMP280;47622;47.726;3.298;2023-12-29T13:11:24;99188.50;;;11.19
61703;BMP280;47622;47.726;3.298;2023-12-29T13:13:51;99183.75;;;11.30
61703;BMP280;47622;47.726;3.298;2023-12-29T13:16:30;99178.19;;;11.31
61703;BMP280;47622;47.726;3.298;2023-12-29T13:18:56;99169.84;;;11.29
61703;BMP280;47622;47.726;3.298;2023-12-29T13:21:21;99177.22;;;11.18
61703;BMP280;47622;47.726;3.298;2023-12-29T13:23:47;99185.00;;;11.32
61703;BMP280;47622;47.726;3.298;2023-12-29T13:26:13;99175.56;;;11.31
61703;BMP280;47622;47.726;3.298;2023-12-29T13:28:40;99169.09;;;11.37
61703;BMP280;47622;47.726;3.298;2023-12-29T13:31:07;99165.25;;;11.43
61703;BMP280;47622;47.726;3.298;2023-12-29T13:34:04;99170.75;;;11.55
61703;BMP280;47622;47.726;3.298;2023-12-29T13:36:43;99166.91;;;11.62
61703;BMP280;47622;47.726;3.298;2023-12-29T13:39:53;99172.31;;;11.56
61703;BMP280;47622;47.726;3.298;2023-12-29T13:42:22;99161.34;;;11.63
61703;BMP280;47622;47.726;3.298;2023-12-29T13:44:49;99162.88;;;11.64
61703;BMP280;47622;47.726;3.298;2023-12-29T13:47:16;99156.91;;;11.72
61703;BMP280;47622;47.726;3.298;2023-12-29T13:49:42;99162.13;;;11.64
61703;BMP280;47622;47.726;3.298;2023-12-29T13:52:08;99159.84;;;11.79
61703;BMP280;47622;47.726;3.298;2023-12-29T13:54:41;99158.09;;;11.66
61703;BMP280;47622;47.726;3.298;2023-12-29T13:57:10;99153.81;;;11.79
61703;BMP280;47622;47.726;3.298;2023-12-29T13:59:36;99154.59;;;11.79
61703;BMP280;47622;47.726;3.298;2023-12-29T14:02:28;99149.50;;;11.83
61703;BMP280;47622;47.726;3.298;2023-12-29T14:05:11;99140.94;;;11.60
61703;BMP280;47622;47.726;3.298;2023-12-29T14:07:44;99135.78;;;11.46
61703;BMP280;47622;47.726;3.298;2023-12-29T14:10:10;99142.28;;;11.40
61703;BMP280;47622;47.726;3.298;2023-12-29T14:12:36;99147.00;;;11.30
61703;BMP280;47622;47.726;3.298;2023-12-29T14:15:04;99144.59;;;11.11
61703;BMP280;47622;47.726;3.298;2023-12-29T14:17:29;99141.50;;;11.09
61703;BMP280;47622;47.726;3.298;2023-12-29T14:19:55;99145.78;;;11.05
61703;BMP280;47622;47.726;3.298;2023-12-29T14:22:22;99145.28;;;10.94
61703;BMP280;47622;47.726;3.298;2023-12-29T14:25:07;99136.16;;;10.91
61703;BMP280;47622;47.726;3.298;2023-12-29T14:27:35;99136.56;;;10.85
61703;BMP280;47622;47.726;3.298;2023-12-29T14:30:01;99144.44;;;10.85
61703;BMP280;47622;47.726;3.298;2023-12-29T14:32:26;99153.16;;;10.94